createdAt,value
2023-05-06T00:01:23.673Z,21.36
2023-05-06T00:03:50.259Z,21.31
2023-05-06T00:06:16.797Z,21.20
2023-05-06T00:08:43.262Z,21.26
2023-05-06T00:11:09.645Z,21.24
2023-05-06T00:13:36.035Z,21.22
2023-05-06T00:16:02.441Z,21.19
2023-05-06T00:18:28.862Z,20.93
2023-05-06T00:20:55.366Z,20.87
2023-05-06T00:23:21.764Z,21.01
2023-05-06T00:25:48.133Z,20.95
2023-05-06T00:28:14.538Z,20.92
2023-05-06T00:30:40.911Z,20.85
2023-05-06T00:33:07.569Z,21.17
2023-05-06T00:35:34.014Z,21.08
2023-05-06T00:38:00.449Z,21.08
2023-05-06T00:40:26.935Z,20.89
2023-05-06T00:42:53.384Z,20.68
2023-05-06T00:45:19.778Z,20.66
2023-05-06T00:47:46.296Z,20.92
2023-05-06T00:50:12.703Z,20.96
2023-05-06T00:52:39.081Z,20.98
2023-05-06T00:55:06.152Z,21.05
2023-05-06T00:57:32.583Z,20.81
2023-05-06T00:59:59.008Z,20.84
2023-05-06T01:02:33.211Z,20.98
2023-05-06T01:05:02.827Z,20.97
2023-05-06T01:07:29.303Z,20.86
2023-05-06T01:09:55.779Z,20.84
2023-05-06T01:12:22.236Z,20.73
2023-05-06T01:14:48.731Z,20.73
2023-05-06T01:17:17.466Z,20.89
2023-05-06T01:19:43.906Z,20.78
2023-05-06T01:22:13.353Z,20.92
2023-05-06T01:24:39.758Z,20.95
2023-05-06T01:27:06.392Z,20.65
2023-05-06T01:29:32.787Z,20.70
2023-05-06T01:32:01.507Z,20.64
2023-05-06T01:34:27.949Z,20.60
2023-05-06T01:36:54.383Z,20.60
2023-05-06T01:39:20.775Z,20.74
2023-05-06T01:41:47.330Z,20.94
2023-05-06T01:44:13.745Z,20.98
2023-05-06T01:46:45.612Z,21.03
2023-05-06T01:49:14.249Z,21.03
2023-05-06T01:51:40.623Z,20.95
2023-05-06T01:54:13.041Z,20.88
2023-05-06T01:56:39.508Z,20.63
2023-05-06T01:59:05.889Z,20.62
2023-05-06T02:01:32.380Z,20.46
2023-05-06T02:03:58.921Z,20.66
2023-05-06T02:06:25.529Z,20.85
2023-05-06T02:08:51.947Z,20.91
2023-05-06T02:11:18.485Z,21.03
2023-05-06T02:13:44.852Z,21.04
2023-05-06T02:16:14.435Z,20.85
2023-05-06T02:18:40.875Z,20.74
2023-05-06T02:21:07.335Z,20.79
2023-05-06T02:23:33.721Z,20.82
2023-05-06T02:26:00.301Z,20.92
2023-05-06T02:28:28.254Z,20.80
2023-05-06T02:30:54.697Z,20.82
2023-05-06T02:33:21.077Z,20.75
2023-05-06T02:35:47.486Z,20.65
2023-05-06T02:38:14.019Z,20.53
2023-05-06T02:40:40.440Z,20.60
2023-05-06T02:43:06.812Z,20.56
2023-05-06T02:45:33.363Z,20.47
2023-05-06T02:47:59.797Z,20.40
2023-05-06T02:50:28.832Z,20.47
2023-05-06T02:52:55.314Z,20.53
2023-05-06T02:55:21.728Z,20.56
2023-05-06T02:57:48.377Z,20.55
2023-05-06T03:00:14.762Z,20.58
2023-05-06T03:02:43.530Z,20.53
2023-05-06T03:05:10.153Z,20.50
2023-05-06T03:07:36.732Z,20.55
2023-05-06T03:10:03.283Z,20.64
2023-05-06T03:12:29.672Z,20.67
2023-05-06T03:15:00.857Z,20.66
2023-05-06T03:17:41.348Z,20.71
2023-05-06T03:20:07.761Z,20.59
2023-05-06T03:22:34.354Z,20.62
2023-05-06T03:25:00.747Z,20.61
2023-05-06T03:27:27.416Z,20.53
2023-05-06T03:29:53.892Z,20.40
2023-05-06T03:32:26.397Z,20.43
2023-05-06T03:34:52.860Z,20.37
2023-05-06T03:37:19.368Z,20.28
2023-05-06T03:39:45.768Z,20.17
2023-05-06T03:42:12.193Z,20.06
2023-05-06T03:44:38.616Z,20.08
2023-05-06T03:47:05.020Z,20.10
2023-05-06T03:49:31.484Z,19.78
2023-05-06T03:51:57.906Z,19.89
2023-05-06T03:54:27.047Z,19.96
2023-05-06T03:56:53.528Z,20.04
2023-05-06T03:59:19.918Z,19.90
2023-05-06T04:01:46.453Z,19.88
2023-05-06T04:04:12.905Z,19.96
2023-05-06T04:06:40.309Z,20.03
2023-05-06T04:09:06.789Z,19.98
2023-05-06T04:11:33.226Z,19.99
2023-05-06T04:13:59.736Z,19.99
2023-05-06T04:16:26.187Z,19.99
2023-05-06T04:18:52.739Z,20.01
2023-05-06T04:21:19.175Z,19.85
2023-05-06T04:23:45.716Z,19.61
2023-05-06T04:26:12.063Z,19.41
2023-05-06T04:28:44.269Z,19.27
2023-05-06T04:31:10.835Z,19.38
2023-05-06T04:33:37.372Z,19.45
2023-05-06T04:36:03.838Z,19.36
2023-05-06T04:38:30.289Z,19.35
2023-05-06T04:40:56.911Z,19.29
2023-05-06T04:43:23.397Z,19.37
2023-05-06T04:45:49.943Z,19.44
2023-05-06T04:48:16.673Z,19.48
2023-05-06T04:50:43.055Z,19.58
2023-05-06T04:53:11.998Z,19.64
2023-05-06T04:55:38.534Z,19.73
2023-05-06T04:58:04.950Z,19.74
2023-05-06T05:00:31.339Z,19.68
2023-05-06T05:02:57.956Z,19.72
2023-05-06T05:05:24.414Z,19.74
2023-05-06T05:07:50.939Z,19.74
2023-05-06T05:10:17.311Z,19.59
2023-05-06T05:12:43.772Z,19.62
2023-05-06T05:15:10.356Z,19.53
2023-05-06T05:17:37.009Z,19.59
2023-05-06T05:20:03.418Z,19.60
2023-05-06T05:22:29.816Z,19.66
2023-05-06T05:24:56.237Z,19.70
2023-05-06T05:27:22.686Z,19.82
2023-05-06T05:29:49.228Z,19.60
2023-05-06T05:32:15.619Z,19.82
2023-05-06T05:34:42.050Z,19.82
2023-05-06T05:37:10.729Z,20.07
2023-05-06T05:39:37.226Z,20.16
2023-05-06T05:42:03.963Z,20.22
2023-05-06T05:44:30.333Z,20.31
2023-05-06T05:46:57.965Z,20.44
2023-05-06T05:49:24.319Z,20.52
2023-05-06T05:51:50.902Z,20.52
2023-05-06T05:54:17.289Z,20.55
2023-05-06T05:56:43.694Z,20.58
2023-05-06T05:59:10.198Z,20.44
2023-05-06T06:01:36.623Z,20.59
2023-05-06T06:04:03.094Z,20.59
2023-05-06T06:06:29.604Z,20.68
2023-05-06T06:08:56.164Z,20.71
2023-05-06T06:11:22.696Z,20.66
2023-05-06T06:13:49.544Z,20.54
2023-05-06T06:16:16.227Z,20.68
2023-05-06T06:18:42.646Z,20.64
2023-05-06T06:21:09.029Z,20.57
2023-05-06T06:23:35.476Z,20.70
2023-05-06T06:26:01.908Z,20.79
2023-05-06T06:28:28.569Z,20.81
2023-05-06T06:30:55.016Z,20.85
2023-05-06T06:33:21.558Z,21.09
2023-05-06T06:35:47.981Z,21.00
2023-05-06T06:38:14.420Z,21.08
2023-05-06T06:40:40.890Z,21.20
2023-05-06T06:43:07.301Z,21.12
2023-05-06T06:45:33.816Z,20.87
2023-05-06T06:48:00.314Z,21.10
2023-05-06T06:50:26.829Z,21.13
2023-05-06T06:52:53.258Z,21.21
2023-05-06T06:55:19.792Z,21.07
2023-05-06T06:57:46.158Z,21.17
2023-05-06T07:00:12.573Z,21.32
2023-05-06T07:02:39.013Z,21.48
2023-05-06T07:05:05.876Z,21.56
2023-05-06T07:07:35.310Z,21.43
2023-05-06T07:10:01.707Z,21.36
2023-05-06T07:12:28.167Z,21.47
2023-05-06T07:14:54.608Z,21.45
2023-05-06T07:17:23.675Z,21.56
2023-05-06T07:19:50.104Z,21.68
2023-05-06T07:22:16.544Z,21.82
2023-05-06T07:24:42.933Z,21.92
2023-05-06T07:27:09.773Z,22.02
2023-05-06T07:29:36.230Z,22.11
2023-05-06T07:32:02.637Z,22.00
2023-05-06T07:34:29.074Z,21.98
2023-05-06T07:36:55.592Z,22.00
2023-05-06T07:39:22.079Z,21.96
2023-05-06T07:41:48.685Z,22.21
2023-05-06T07:44:15.228Z,22.24
2023-05-06T07:46:41.966Z,22.31
2023-05-06T07:49:10.113Z,22.24
2023-05-06T07:51:36.531Z,22.42
2023-05-06T07:54:03.219Z,22.49
2023-05-06T07:56:29.802Z,22.54
2023-05-06T07:58:56.395Z,22.41
2023-05-06T08:01:23.009Z,22.52
2023-05-06T08:03:49.552Z,22.46
2023-05-06T08:06:16.049Z,22.50
2023-05-06T08:08:42.491Z,22.23
2023-05-06T08:11:08.972Z,22.44
2023-05-06T08:13:35.405Z,22.52
2023-05-06T08:16:03.466Z,22.65
2023-05-06T08:18:30.068Z,22.64
2023-05-06T08:20:56.584Z,22.67
2023-05-06T08:23:23.135Z,22.81
2023-05-06T08:25:49.642Z,22.83
2023-05-06T08:28:16.065Z,22.83
2023-05-06T08:30:42.614Z,22.88
2023-05-06T08:33:09.104Z,23.16
2023-05-06T08:35:35.613Z,23.39
2023-05-06T08:38:02.084Z,23.23
2023-05-06T08:40:28.456Z,23.47
2023-05-06T08:42:56.080Z,23.32
2023-05-06T08:45:22.503Z,23.48
2023-05-06T08:47:51.351Z,23.59
2023-05-06T08:50:17.770Z,23.75
2023-05-06T08:52:44.283Z,23.81
2023-05-06T08:55:10.885Z,23.64
2023-05-06T08:57:37.461Z,23.81
2023-05-06T09:00:06.061Z,23.54
2023-05-06T09:02:32.682Z,23.60
2023-05-06T09:04:59.231Z,23.64
2023-05-06T09:07:25.773Z,23.78
2023-05-06T09:09:54.521Z,23.82
2023-05-06T09:12:20.914Z,23.91
2023-05-06T09:14:47.692Z,23.93
2023-05-06T09:17:14.260Z,23.96
2023-05-06T09:19:40.637Z,24.10
2023-05-06T09:22:07.074Z,24.18
2023-05-06T09:24:33.490Z,24.29
2023-05-06T09:26:59.887Z,24.40
2023-05-06T09:29:26.464Z,24.58
2023-05-06T09:31:52.967Z,24.52
2023-05-06T09:34:19.391Z,24.66
2023-05-06T09:36:45.901Z,24.59
2023-05-06T09:39:12.290Z,24.71
2023-05-06T09:41:38.799Z,24.71
2023-05-06T09:44:05.244Z,24.66
2023-05-06T09:46:31.735Z,24.69
2023-05-06T09:48:58.333Z,24.72
2023-05-06T09:51:24.969Z,24.87
2023-05-06T09:53:51.455Z,25.10
2023-05-06T09:56:17.865Z,25.09
2023-05-06T09:58:44.508Z,25.10
2023-05-06T10:01:12.080Z,25.07
2023-05-06T10:03:39.807Z,25.17
2023-05-06T10:06:06.409Z,25.30
2023-05-06T10:08:32.812Z,25.37
2023-05-06T10:10:59.270Z,25.47
2023-05-06T10:13:25.770Z,25.30
2023-05-06T10:15:52.286Z,25.29
2023-05-06T10:18:18.744Z,25.25
2023-05-06T10:20:45.382Z,25.02
2023-05-06T10:23:11.794Z,25.24
2023-05-06T10:25:38.285Z,25.34
2023-05-06T10:28:06.164Z,25.22
2023-05-06T10:30:37.109Z,25.15
2023-05-06T10:33:03.584Z,25.26
2023-05-06T10:35:30.066Z,25.36
2023-05-06T10:37:56.540Z,25.46
2023-05-06T10:40:22.987Z,25.44
2023-05-06T10:42:49.508Z,25.59
2023-05-06T10:45:15.952Z,25.29
2023-05-06T10:47:42.413Z,25.34
2023-05-06T10:50:08.870Z,25.53
2023-05-06T10:52:35.280Z,25.56
2023-05-06T10:55:01.874Z,25.56
2023-05-06T10:57:28.394Z,25.62
2023-05-06T10:59:54.872Z,25.75
2023-05-06T11:02:21.456Z,25.83
2023-05-06T11:04:48.094Z,26.11
2023-05-06T11:07:14.531Z,26.26
2023-05-06T11:09:41.021Z,26.16
2023-05-06T11:12:07.508Z,26.19
2023-05-06T11:14:33.945Z,25.91
2023-05-06T11:17:00.430Z,26.03
2023-05-06T11:19:26.840Z,25.98
2023-05-06T11:21:53.484Z,25.94
2023-05-06T11:24:19.905Z,26.13
2023-05-06T11:26:46.493Z,26.25
2023-05-06T11:29:13.504Z,26.30
2023-05-06T11:31:39.994Z,25.91
2023-05-06T11:34:06.400Z,26.19
2023-05-06T11:36:32.917Z,26.38
2023-05-06T11:38:59.649Z,26.46
2023-05-06T11:41:26.196Z,26.43
2023-05-06T11:43:52.702Z,26.53
2023-05-06T11:46:19.396Z,26.59
2023-05-06T11:48:45.985Z,26.60
2023-05-06T11:51:12.558Z,26.54
2023-05-06T11:53:38.970Z,26.57
2023-05-06T11:56:05.384Z,26.49
2023-05-06T11:58:31.776Z,26.51
2023-05-06T12:01:00.901Z,26.60
2023-05-06T12:03:27.529Z,26.71
2023-05-06T12:05:54.140Z,26.67
2023-05-06T12:08:27.354Z,26.45
2023-05-06T12:10:54.548Z,26.51
2023-05-06T12:13:20.952Z,26.61
2023-05-06T12:15:47.481Z,26.79
2023-05-06T12:18:13.958Z,26.75
2023-05-06T12:20:40.383Z,26.74
2023-05-06T12:23:06.800Z,26.79
2023-05-06T12:25:33.171Z,26.94
2023-05-06T12:27:59.619Z,26.94
2023-05-06T12:30:26.223Z,27.12
2023-05-06T12:32:52.758Z,27.14
2023-05-06T12:35:19.214Z,27.05
2023-05-06T12:37:45.660Z,27.00
2023-05-06T12:40:12.409Z,26.76
2023-05-06T12:42:39.316Z,26.82
2023-05-06T12:45:05.769Z,26.71
2023-05-06T12:47:32.264Z,26.82
2023-05-06T12:49:59.168Z,26.92
2023-05-06T12:52:25.913Z,26.97
2023-05-06T12:54:52.345Z,27.08
2023-05-06T12:57:18.777Z,27.15
2023-05-06T12:59:45.196Z,27.13
2023-05-06T13:02:11.633Z,27.31
2023-05-06T13:04:38.198Z,27.44
2023-05-06T13:07:04.652Z,27.28
2023-05-06T13:09:31.304Z,27.44
2023-05-06T13:11:57.686Z,27.42
2023-05-06T13:14:24.144Z,27.43
2023-05-06T13:16:50.584Z,27.31
2023-05-06T13:21:46.367Z,27.34
2023-05-06T13:24:12.847Z,27.47
2023-05-06T13:26:39.278Z,27.72
2023-05-06T13:29:05.692Z,27.93
2023-05-06T13:31:32.140Z,27.77
2023-05-06T13:33:58.699Z,28.10
2023-05-06T13:36:25.061Z,28.33
2023-05-06T13:38:51.426Z,28.33
2023-05-06T13:41:17.833Z,28.09
2023-05-06T13:43:44.501Z,28.40
2023-05-06T13:46:11.013Z,28.54
2023-05-06T13:48:37.438Z,28.86
2023-05-06T13:51:03.841Z,28.79
2023-05-06T13:53:30.305Z,28.92
2023-05-06T13:55:56.877Z,28.85
2023-05-06T13:58:23.440Z,28.78
2023-05-06T14:00:49.979Z,28.73
2023-05-06T14:03:16.405Z,28.84
2023-05-06T14:05:44.758Z,28.68
2023-05-06T14:08:11.261Z,28.74
2023-05-06T14:10:37.748Z,28.71
2023-05-06T14:13:06.774Z,29.24
2023-05-06T14:15:33.636Z,28.64
2023-05-06T14:18:00.196Z,28.41
2023-05-06T14:20:26.660Z,28.81
2023-05-06T14:22:53.206Z,28.41
2023-05-06T14:25:19.842Z,29.09
2023-05-06T14:27:46.264Z,29.49
2023-05-06T14:30:13.162Z,30.19
2023-05-06T14:32:39.699Z,30.68
2023-05-06T14:35:06.170Z,31.51
2023-05-06T14:37:32.645Z,32.38
2023-05-06T14:39:59.065Z,33.09
2023-05-06T14:42:25.584Z,33.63
2023-05-06T14:44:52.042Z,34.03
2023-05-06T14:47:18.451Z,34.19
2023-05-06T14:49:44.896Z,34.69
2023-05-06T14:52:11.336Z,35.20
2023-05-06T14:54:37.773Z,35.15
2023-05-06T14:57:04.236Z,35.72
2023-05-06T14:59:30.784Z,35.19
2023-05-06T15:01:57.212Z,35.29
2023-05-06T15:04:23.671Z,35.42
2023-05-06T15:06:50.259Z,35.58
2023-05-06T15:09:16.636Z,35.90
2023-05-06T15:11:43.078Z,36.32
2023-05-06T15:14:09.573Z,36.66
2023-05-06T15:16:36.083Z,37.18
2023-05-06T15:19:02.598Z,37.62
2023-05-06T15:21:29.033Z,37.80
2023-05-06T15:23:55.506Z,38.17
2023-05-06T15:26:22.015Z,38.24
2023-05-06T15:28:48.573Z,37.84
2023-05-06T15:31:15.037Z,38.29
2023-05-06T15:33:41.609Z,38.75
2023-05-06T15:36:08.036Z,38.89
2023-05-06T15:38:34.504Z,38.81
2023-05-06T15:41:00.952Z,38.93
2023-05-06T15:43:36.414Z,38.84
2023-05-06T15:46:05.115Z,39.26
2023-05-06T15:48:34.758Z,39.06
2023-05-06T15:51:01.170Z,38.57
2023-05-06T15:53:27.809Z,38.30
2023-05-06T15:55:57.192Z,38.26
2023-05-06T15:58:30.718Z,38.93
2023-05-06T16:00:57.293Z,38.99
2023-05-06T16:03:23.949Z,38.52
2023-05-06T16:05:50.622Z,38.18
2023-05-06T16:08:17.171Z,37.25
2023-05-06T16:10:43.575Z,35.76
2023-05-06T16:13:11.223Z,34.00
2023-05-06T16:15:37.666Z,33.41
2023-05-06T16:18:04.209Z,33.49
2023-05-06T16:20:30.620Z,34.31
2023-05-06T16:22:57.358Z,34.07
2023-05-06T16:25:23.827Z,32.27
2023-05-06T16:27:50.273Z,31.46
2023-05-06T16:30:16.764Z,30.54
2023-05-06T16:32:43.324Z,30.40
2023-05-06T16:35:09.804Z,30.20
2023-05-06T16:37:36.198Z,29.97
2023-05-06T16:40:02.947Z,29.67
2023-05-06T16:42:29.424Z,29.08
2023-05-06T16:44:55.847Z,28.82
2023-05-06T16:47:22.502Z,28.77
2023-05-06T16:49:49.062Z,28.71
2023-05-06T16:52:15.664Z,28.63
2023-05-06T16:54:42.220Z,28.24
2023-05-06T16:57:11.693Z,28.21
2023-05-06T16:59:38.134Z,27.99
2023-05-06T17:02:04.819Z,27.47
2023-05-06T17:04:31.582Z,27.63
2023-05-06T17:06:58.145Z,27.00
2023-05-06T17:09:27.775Z,27.13
2023-05-06T17:11:54.214Z,26.67
2023-05-06T17:14:20.637Z,26.44
2023-05-06T17:16:49.074Z,26.26
2023-05-06T17:19:15.507Z,26.45
2023-05-06T17:21:41.948Z,26.57
2023-05-06T17:24:08.401Z,26.36
2023-05-06T17:26:35.074Z,26.23
2023-05-06T17:29:01.485Z,26.32
2023-05-06T17:31:28.154Z,26.44
2023-05-06T17:33:54.756Z,26.59
2023-05-06T17:36:21.181Z,26.56
2023-05-06T17:38:48.761Z,26.49
2023-05-06T17:41:15.299Z,26.39
2023-05-06T17:43:41.731Z,26.39
2023-05-06T17:46:08.249Z,26.21
2023-05-06T17:48:41.801Z,26.12
2023-05-06T17:51:08.285Z,26.04
2023-05-06T17:53:36.256Z,26.05
2023-05-06T17:56:02.803Z,25.87
2023-05-06T17:58:29.271Z,25.90
2023-05-06T18:00:55.904Z,25.79
2023-05-06T18:03:22.351Z,25.66
2023-05-06T18:05:48.894Z,25.51
2023-05-06T18:08:15.329Z,25.37
2023-05-06T18:10:41.979Z,25.33
2023-05-06T18:13:08.442Z,25.35
2023-05-06T18:15:35.061Z,25.32
2023-05-06T18:18:01.515Z,25.27
2023-05-06T18:20:27.955Z,25.22
2023-05-06T18:22:54.577Z,25.21
2023-05-06T18:25:21.138Z,25.15
2023-05-06T18:27:47.653Z,24.91
2023-05-06T18:30:14.080Z,24.85
2023-05-06T18:32:40.700Z,24.83
2023-05-06T18:35:07.367Z,24.71
2023-05-06T18:37:33.837Z,24.80
2023-05-06T18:40:01.481Z,24.63
2023-05-06T18:42:27.940Z,24.61
2023-05-06T18:44:54.584Z,24.70
2023-05-06T18:47:21.011Z,24.62
2023-05-06T18:49:47.625Z,24.50
2023-05-06T18:52:14.067Z,24.52
2023-05-06T18:54:42.679Z,24.50
2023-05-06T18:57:09.184Z,24.43
2023-05-06T18:59:35.681Z,24.42
2023-05-06T19:02:03.766Z,24.43
2023-05-06T19:04:30.641Z,24.45
2023-05-06T19:06:57.284Z,24.45
2023-05-06T19:09:23.835Z,24.37
2023-05-06T19:11:50.277Z,24.39
2023-05-06T19:14:16.776Z,24.28
2023-05-06T19:16:43.242Z,24.25
2023-05-06T19:19:09.799Z,24.21
2023-05-06T19:21:36.203Z,24.21
2023-05-06T19:24:02.749Z,24.15
2023-05-06T19:26:29.272Z,24.05
2023-05-06T19:28:55.630Z,24.06
2023-05-06T19:31:22.147Z,24.05
2023-05-06T19:33:48.757Z,23.96
2023-05-06T19:36:15.352Z,23.89
2023-05-06T19:38:41.755Z,23.77
2023-05-06T19:41:08.192Z,23.67
2023-05-06T19:43:34.589Z,23.65
2023-05-06T19:46:01.144Z,23.61
2023-05-06T19:48:27.630Z,23.58
2023-05-06T19:50:54.154Z,23.45
2023-05-06T19:53:20.606Z,23.50
2023-05-06T19:55:46.986Z,23.44
2023-05-06T19:58:13.449Z,23.46
2023-05-06T20:00:39.917Z,23.48
2023-05-06T20:03:06.382Z,23.50
2023-05-06T20:05:32.984Z,23.46
2023-05-06T20:07:59.414Z,23.31
2023-05-06T20:10:25.808Z,23.20
2023-05-06T20:12:52.240Z,23.25
2023-05-06T20:15:18.791Z,23.34
2023-05-06T20:17:45.325Z,23.34
2023-05-06T20:20:11.779Z,23.50
2023-05-06T20:22:38.447Z,23.46
2023-05-06T20:25:04.861Z,23.55
2023-05-06T20:27:31.318Z,23.42
2023-05-06T20:29:57.771Z,23.17
2023-05-06T20:32:25.581Z,23.12
2023-05-06T20:34:52.023Z,23.13
2023-05-06T20:37:18.696Z,23.14
2023-05-06T20:39:45.141Z,23.16
2023-05-06T20:42:11.711Z,23.24
2023-05-06T20:44:38.124Z,23.36
2023-05-06T20:47:04.528Z,23.44
2023-05-06T20:49:30.962Z,23.42
2023-05-06T20:51:57.344Z,23.47
2023-05-06T20:54:23.850Z,23.34
2023-05-06T20:56:50.233Z,23.05
2023-05-06T20:59:16.651Z,22.88
2023-05-06T21:01:43.150Z,22.82
2023-05-06T21:04:09.673Z,23.12
2023-05-06T21:06:36.177Z,23.16
2023-05-06T21:09:02.667Z,23.27
2023-05-06T21:11:29.124Z,23.29
2023-05-06T21:13:55.604Z,23.20
2023-05-06T21:16:22.156Z,23.13
2023-05-06T21:18:48.853Z,22.93
2023-05-06T21:21:15.457Z,22.63
2023-05-06T21:23:41.863Z,22.56
2023-05-06T21:26:08.398Z,22.44
2023-05-06T21:28:34.866Z,22.33
2023-05-06T21:31:01.554Z,22.20
2023-05-06T21:33:27.998Z,22.12
2023-05-06T21:35:54.416Z,22.07
2023-05-06T21:38:20.843Z,22.05
2023-05-06T21:40:47.291Z,22.10
2023-05-06T21:43:14.041Z,22.27
2023-05-06T21:45:40.440Z,22.37
2023-05-06T21:48:07.003Z,22.38
2023-05-06T21:50:33.452Z,22.57
2023-05-06T21:52:59.902Z,22.66
2023-05-06T21:55:26.319Z,22.68
2023-05-06T21:57:52.725Z,22.74
2023-05-06T22:00:19.177Z,22.76
2023-05-06T22:02:45.830Z,22.54
2023-05-06T22:05:12.486Z,22.54
2023-05-06T22:07:39.085Z,22.55
2023-05-06T22:10:05.525Z,22.53
2023-05-06T22:12:31.902Z,22.45
2023-05-06T22:14:58.309Z,22.21
2023-05-06T22:17:24.830Z,22.13
2023-05-06T22:19:51.282Z,22.10
2023-05-06T22:22:18.189Z,22.06
2023-05-06T22:24:44.604Z,22.19
2023-05-06T22:27:11.013Z,22.38
2023-05-06T22:29:37.420Z,22.47
2023-05-06T22:34:30.359Z,22.26
2023-05-06T22:36:58.095Z,22.17
2023-05-06T22:39:25.421Z,22.16
2023-05-06T22:41:51.783Z,22.13
2023-05-06T22:44:18.229Z,22.05
2023-05-06T22:46:46.840Z,22.14
2023-05-06T22:49:13.382Z,22.03
2023-05-06T22:51:39.765Z,22.22
2023-05-06T22:54:06.134Z,22.29
2023-05-06T22:56:32.505Z,22.29
2023-05-06T22:58:58.938Z,22.29
2023-05-06T23:01:25.420Z,21.80
2023-05-06T23:03:51.904Z,21.58
2023-05-06T23:06:18.377Z,21.49
2023-05-06T23:08:44.772Z,21.42
2023-05-06T23:11:11.307Z,21.31
2023-05-06T23:13:37.732Z,21.51
2023-05-06T23:16:04.421Z,21.52
2023-05-06T23:18:30.801Z,21.77
2023-05-06T23:20:57.245Z,21.92
2023-05-06T23:23:23.616Z,21.91
2023-05-06T23:25:50.058Z,21.93
2023-05-06T23:28:16.455Z,21.84
2023-05-06T23:30:42.951Z,21.85
2023-05-06T23:33:09.468Z,21.88
2023-05-06T23:35:35.908Z,21.84
2023-05-06T23:38:02.326Z,21.72
2023-05-06T23:40:28.755Z,21.75
2023-05-06T23:42:55.137Z,21.65
2023-05-06T23:45:21.504Z,21.77
2023-05-06T23:47:47.946Z,21.55
2023-05-06T23:50:14.741Z,21.45
2023-05-06T23:52:41.326Z,21.41
2023-05-06T23:55:07.774Z,21.58
2023-05-06T23:57:34.181Z,21.53
